Weather at Kilimanjaro International Airport

Public forecast

Using degrees Celsius for public forecast. Weather courtesy of forecast.io.

Current aviation weather report (METAR) for Kilimanjaro International Airport

Report is more than 6 hours old.

2022/11/14 13:00 (retrieved 2 years ago)

HTKJ 141300Z 09013KT 9999 PO BKN040 FEW042CB 30/15 Q1014 NOSIG

Aviation forecast (TAF) for Kilimanjaro International Airport

Forecast is more than 12 hours old.

2023/02/22 18:00 (retrieved 1 year ago)

TAF HTKJ 221700Z 2218/2318 09015KT 9999 FEW028